EmailTwitter


Observations de surface / Québec / CYUL (71627)

Régions: Québec | Canada | États-Unis | Europe | France | UK | Ailleurs
Station
Affichage
Infos & localisation pour CYUL (71627) | Aide pour décoder les METARs

Observations prises le 2018-02-22 à 10H00 UTC à MONTREAL INTL A, QB (CYUL)

Etat du ciel: quelques nuages.

Température: -7.0 Celsius

Point de rosée: -13.0 Celsius

Humidité relative: 62%

Facteur vent: -13.

Vents: Nord-est à 15 km/h ou 8 noeuds.

Pression au niveau moyen de la mer: 104.02 kilopascals.

Calage altimétrique: 104.00 kilopascals ou 30.71 pouces de mercure.

Visibilité horizontale: 15.00 milles terrestres ou 24.00 kilomètres.

Observation METAR:

CYUL 221000Z 04008KT 15SM FEW240 M07/M13 A3071 RMK CI1 CI TR SLP402=